sim
Sign-in with your pilot id or email,
or register
Callsign
Passwort

Schedule Details

Flight Number: OEO3437
Departure: Milan Linate Airport (LIML) at 16:10
Arrival: Munich Airport (EDDM) at 17:20

Weather Information
Getting current METAR information for LIML 220320Z AUTO 03005KT 8000 BKN020/// 19/18 Q1015
Getting current METAR information for EDDM 220320Z 33001KT 2500 0500S R08L/0650N R08R/0450U BCFG FEW001 08/07 Q1015 BECMG 3000

Schedule Frequency

Route Map